Time;durP1;ratioP1;P1;durP2;ratioP2;P2;SDS_P1;SDS_P2;PMS_P1;PMS_P2;Temp;Humidity;BMP_temperature;BMP_pressure;BME280_temperature;BME280_humidity;BME280_pressure;Samples;Min_cycle;Max_cycle;Signal;HPM_P1;HPM_P2
2022/05/24 00:00:21;;;;;;;3.17;1.20;;;;;;;20.98;40.82;100192.69;5077010;28;20028;-95
2022/05/24 00:02:47;;;;;;;5.78;1.10;;;;;;;21.09;40.51;100189.91;5076232;28;20442;-88
2022/05/24 00:05:14;;;;;;;1.70;0.90;;;;;;;21.05;40.41;100187.91;5075640;28;20028;-85
2022/05/24 00:07:41;;;;;;;2.10;0.93;;;;;;;21.03;40.52;100183.94;5075795;28;20040;-84
2022/05/24 00:10:09;;;;;;;3.35;1.10;;;;;;;21.02;40.43;100191.50;5075745;28;20549;-87
2022/05/24 00:12:35;;;;;;;4.32;0.90;;;;;;;21.00;40.38;100188.31;5075823;28;20107;-85
2022/05/24 00:17:48;;;;;;;2.90;1.10;;;;;;;20.98;40.29;100185.13;5057116;28;20064;-88
2022/05/24 00:20:15;;;;;;;3.67;1.02;;;;;;;21.03;40.07;100178.41;5055780;28;20032;-88
2022/05/24 00:22:41;;;;;;;2.53;1.02;;;;;;;20.97;40.22;100186.31;5055723;28;20458;-85
2022/05/24 00:25:07;;;;;;;3.92;1.15;;;;;;;20.93;40.61;100185.56;5055432;28;20402;-87
2022/05/24 00:27:33;;;;;;;1.75;1.00;;;;;;;20.91;40.26;100182.34;5055628;28;20503;-88
2022/05/24 00:29:59;;;;;;;2.22;0.98;;;;;;;20.91;40.36;100187.91;5055280;28;20025;-90
2022/05/24 00:32:25;;;;;;;3.38;1.10;;;;;;;20.89;40.30;100175.63;5056767;28;20472;-88
2022/05/24 00:34:50;;;;;;;3.10;0.88;;;;;;;20.82;40.50;100176.41;5056918;28;20029;-94
2022/05/24 00:37:22;;;;;;;1.02;0.80;;;;;;;20.78;40.46;100181.16;5056690;28;20495;-89
2022/05/24 00:39:49;;;;;;;5.95;1.38;;;;;;;20.80;40.48;100180.78;5055390;28;20372;-85
2022/05/24 00:42:21;;;;;;;3.95;1.30;;;;;;;20.72;40.52;100180.78;5055982;28;20029;-89
2022/05/24 00:45:01;;;;;;;1.73;1.08;;;;;;;20.74;40.42;100180.38;5055284;28;20025;-95
2022/05/24 00:47:39;;;;;;;4.32;1.20;;;;;;;20.69;40.56;100177.97;5055382;28;20028;-89
2022/05/24 00:50:11;;;;;;;2.33;1.00;;;;;;;20.64;40.72;100175.63;5055190;28;20384;-90
2022/05/24 00:52:49;;;;;;;5.18;1.10;;;;;;;20.66;40.57;100179.56;5071861;28;20387;-88
2022/05/24 00:55:22;;;;;;;4.78;1.25;;;;;;;20.69;40.56;100175.19;5076732;28;20021;-91
2022/05/24 00:58:02;;;;;;;1.10;0.85;;;;;;;20.66;40.80;100173.22;5066277;28;20025;-93
2022/05/24 01:00:28;;;;;;;5.63;1.10;;;;;;;20.71;40.58;100176.41;5054785;28;20024;-85
2022/05/24 01:02:54;;;;;;;2.75;1.20;;;;;;;20.73;40.49;100176.00;5060735;28;20039;-89
2022/05/24 01:05:26;;;;;;;2.88;1.23;;;;;;;20.69;40.60;100172.44;5074783;28;20081;-94
2022/05/24 01:07:52;;;;;;;1.75;1.25;;;;;;;20.63;40.78;100168.44;5075001;28;20520;-92
2022/05/24 01:10:31;;;;;;;3.53;1.05;;;;;;;20.53;41.01;100178.34;5074862;28;20025;-89
2022/05/24 01:13:04;;;;;;;1.83;1.00;;;;;;;20.46;40.93;100172.78;5071041;28;20056;-93
2022/05/24 01:15:31;;;;;;;3.25;1.20;;;;;;;20.44;41.02;100167.63;5055726;28;20021;-87
2022/05/24 01:17:58;;;;;;;3.97;1.48;;;;;;;20.39;41.04;100169.97;5054688;28;20029;-95
2022/05/24 01:20:24;;;;;;;6.63;2.05;;;;;;;20.44;41.03;100178.75;5054568;28;20035;-86
2022/05/24 01:23:18;;;;;;;4.82;1.40;;;;;;;20.41;40.71;100176.72;5058828;28;20032;-88
2022/05/24 01:26:11;;;;;;;1.30;1.20;;;;;;;20.05;41.60;100188.91;5074395;28;20028;-87
2022/05/24 01:28:57;;;;;;;16.90;2.17;;;;;;;20.17;41.03;100180.22;5074306;28;20537;-88
2022/05/24 01:31:25;;;;;;;11.38;2.45;;;;;;;20.20;41.01;100193.31;5074093;28;20024;-88
2022/05/24 01:36:41;;;;;;;3.78;1.77;;;;;;;20.12;40.96;100197.25;5055813;28;20047;-87
2022/05/24 01:39:11;;;;;;;3.08;1.85;;;;;;;20.07;40.80;100198.41;5054079;28;20037;-94
2022/05/24 01:41:41;;;;;;;2.65;1.50;;;;;;;19.99;41.38;100196.78;5054020;28;20021;-94
2022/05/24 01:44:09;;;;;;;2.50;1.10;;;;;;;20.00;41.12;100203.91;5072037;28;20044;-87
2022/05/24 01:46:38;;;;;;;1.60;1.20;;;;;;;19.98;41.32;100200.75;5074314;28;20028;-87
2022/05/24 01:49:14;;;;;;;6.82;1.67;;;;;;;20.00;41.19;100190.06;5073530;28;20111;-85
2022/05/24 01:52:26;;;;;;;3.15;2.10;;;;;;;19.92;41.30;100194.78;5086263;28;20056;-87
2022/05/24 01:55:13;;;;;;;1.58;1.30;;;;;;;19.94;41.32;100195.19;5073147;28;20046;-94
2022/05/24 01:57:43;;;;;;;2.25;1.45;;;;;;;19.94;41.36;100194.38;5073571;28;20032;-85
2022/05/24 02:00:12;;;;;;;3.22;1.40;;;;;;;19.92;41.35;100200.31;5073764;28;20055;-87
2022/05/24 02:02:38;;;;;;;3.67;1.60;;;;;;;20.02;41.43;100200.75;5077836;28;20028;-88
2022/05/24 02:05:05;;;;;;;4.55;1.55;;;;;;;20.01;41.19;100199.16;5093873;28;20027;-84
2022/05/24 02:07:32;;;;;;;2.67;1.65;;;;;;;20.05;41.27;100200.00;5093537;28;20032;-86
2022/05/24 02:09:57;;;;;;;1.80;1.33;;;;;;;20.03;41.48;100192.06;5093411;28;20032;-89
2022/05/24 02:12:38;;;;;;;3.53;2.13;;;;;;;20.13;41.19;100199.63;5093470;28;20493;-93
2022/05/24 02:15:07;;;;;;;5.68;1.77;;;;;;;20.15;41.34;100196.47;5093645;28;20035;-94
2022/05/24 02:17:53;;;;;;;4.45;1.60;;;;;;;20.18;41.13;100198.47;5093631;28;20115;-93
2022/05/24 02:20:24;;;;;;;5.80;1.75;;;;;;;20.21;41.47;100203.22;5093362;28;20032;-87
2022/05/24 02:22:50;;;;;;;7.43;1.88;;;;;;;20.21;41.34;100206.00;5093310;28;20115;-87
2022/05/24 02:25:22;;;;;;;4.20;2.33;;;;;;;20.19;41.59;100208.38;5093441;28;20063;-85
2022/05/24 02:27:49;;;;;;;3.58;1.55;;;;;;;20.27;41.12;100209.97;5092664;28;20074;-87
2022/05/24 02:30:18;;;;;;;15.20;2.10;;;;;;;20.19;41.56;100209.16;5093471;28;20055;-87
2022/05/24 02:32:45;;;;;;;;;;;;;;;20.03;41.96;100208.72;5093172;28;20020;-83
2022/05/24 02:35:11;;;;;;;6.07;1.67;;;;;;;20.19;41.66;100208.38;5094441;28;19912;-92
2022/05/24 02:37:37;;;;;;;3.05;1.40;;;;;;;20.22;41.59;100205.59;5093263;28;20114;-94
2022/05/24 02:42:49;;;;;;;4.40;1.20;;;;;;;20.28;41.58;100206.03;5094083;28;20081;-92
2022/05/24 02:45:14;;;;;;;1.48;1.02;;;;;;;20.19;41.78;100203.63;5092503;28;20424;-87
2022/05/24 02:47:40;;;;;;;5.00;1.75;;;;;;;20.15;41.76;100204.78;5093221;28;20027;-88
2022/05/24 02:50:09;;;;;;;6.38;1.33;;;;;;;20.21;42.07;100209.56;5085652;28;20055;-87
2022/05/24 02:52:36;;;;;;;5.97;1.60;;;;;;;20.20;42.04;100201.63;5072643;28;20067;-86
2022/05/24 02:55:04;;;;;;;2.95;1.25;;;;;;;20.17;42.03;100207.94;5072688;28;20024;-85
2022/05/24 02:57:29;;;;;;;6.10;1.45;;;;;;;20.22;41.86;100205.59;5073933;28;20390;-93
2022/05/24 02:59:55;;;;;;;5.85;1.33;;;;;;;20.34;41.74;100207.22;5072370;28;20024;-94
2022/05/24 03:02:21;;;;;;;2.97;1.15;;;;;;;20.24;41.77;100208.75;5057853;28;20510;-87
2022/05/24 03:04:46;;;;;;;2.45;1.08;;;;;;;20.29;41.69;100213.16;5064738;28;20387;-84
2022/05/24 03:09:56;;;;;;;3.47;1.25;;;;;;;20.34;41.64;100212.78;5053831;28;20379;-87
2022/05/24 03:15:06;;;;;;;5.63;1.80;;;;;;;20.35;41.60;100217.13;5053656;28;20036;-94
2022/05/24 03:17:32;;;;;;;2.38;1.00;;;;;;;20.37;41.72;100214.75;5052510;28;20028;-84
2022/05/24 03:19:57;;;;;;;3.88;1.40;;;;;;;20.32;41.92;100228.22;5052694;28;20399;-86
2022/05/24 03:22:23;;;;;;;3.50;1.13;;;;;;;20.27;41.84;100223.06;5074726;28;20028;-86
2022/05/24 03:24:49;;;;;;;4.03;1.27;;;;;;;20.29;41.84;100218.69;5076545;28;20021;-82
2022/05/24 03:27:15;;;;;;;7.30;1.75;;;;;;;20.27;41.88;100223.84;5076103;28;20123;-92
2022/05/24 03:29:42;;;;;;;3.53;1.30;;;;;;;20.24;41.92;100230.97;5076386;28;20020;-86
2022/05/24 03:32:09;;;;;;;2.08;1.40;;;;;;;20.20;41.96;100218.28;5075784;28;20475;-86
2022/05/24 03:34:36;;;;;;;2.38;1.33;;;;;;;20.19;42.07;100216.69;5076199;28;20115;-84
2022/05/24 03:37:01;;;;;;;3.83;0.95;;;;;;;20.24;42.05;100222.63;5077403;28;20032;-86
2022/05/24 03:39:27;;;;;;;2.95;0.90;;;;;;;20.34;41.94;100228.63;5076164;28;20545;-87
2022/05/24 03:41:53;;;;;;;3.63;1.60;;;;;;;20.25;42.06;100223.44;5075883;28;20119;-94
2022/05/24 03:44:19;;;;;;;2.80;1.33;;;;;;;20.09;42.57;100228.53;5075879;28;20029;-86
2022/05/24 03:46:45;;;;;;;5.85;1.20;;;;;;;20.12;42.41;100223.00;5076090;28;20145;-92
2022/05/24 03:49:11;;;;;;;2.88;1.30;;;;;;;20.22;42.04;100230.56;5076029;28;20075;-83
2022/05/24 03:51:37;;;;;;;6.05;1.40;;;;;;;20.18;42.28;100231.75;5075863;28;20056;-93
2022/05/24 03:54:03;;;;;;;2.00;1.20;;;;;;;20.02;42.63;100231.25;5075979;28;20024;-95
2022/05/24 03:56:29;;;;;;;2.03;1.00;;;;;;;20.20;42.21;100237.69;5075647;28;20115;-84
2022/05/24 03:58:55;;;;;;;2.35;1.10;;;;;;;19.97;42.66;100245.50;5075954;28;20364;-88
2022/05/24 04:01:20;;;;;;;4.57;1.38;;;;;;;20.19;42.07;100242.44;5067687;28;20074;-86
2022/05/24 04:03:46;;;;;;;2.58;1.45;;;;;;;20.16;42.41;100236.88;5055641;28;20028;-86
2022/05/24 04:06:11;;;;;;;3.53;1.30;;;;;;;20.16;42.43;100242.41;5055531;28;20021;-88
2022/05/24 04:08:37;;;;;;;4.95;1.35;;;;;;;20.10;42.75;100230.94;5069130;28;20032;-86
2022/05/24 04:11:06;;;;;;;10.85;1.73;;;;;;;20.03;42.60;100246.75;5075572;28;20028;-86
2022/05/24 04:13:33;;;;;;;3.93;1.57;;;;;;;20.19;42.20;100245.22;5059956;28;20067;-87
2022/05/24 04:15:59;;;;;;;4.20;1.85;;;;;;;20.11;42.52;100242.81;5055596;28;20094;-92
2022/05/24 04:18:26;;;;;;;2.45;1.30;;;;;;;19.94;42.83;100250.63;5055410;28;20021;-84
2022/05/24 04:20:51;;;;;;;4.63;1.63;;;;;;;19.98;42.87;100249.88;5055325;28;20021;-87
2022/05/24 04:23:19;;;;;;;2.92;1.40;;;;;;;20.11;42.63;100248.34;5055691;28;20048;-88
2022/05/24 04:25:45;;;;;;;5.78;1.40;;;;;;;20.11;42.66;100248.34;5055447;28;20047;-87
2022/05/24 04:28:11;;;;;;;5.05;1.40;;;;;;;20.11;42.60;100251.13;5055348;28;20021;-86
2022/05/24 04:30:37;;;;;;;2.50;1.30;;;;;;;20.02;42.70;100254.25;5055296;28;20032;-87
2022/05/24 04:33:03;;;;;;;5.35;1.42;;;;;;;20.13;42.56;100251.53;5054970;28;20040;-87
2022/05/24 04:35:29;;;;;;;5.95;1.60;;;;;;;20.23;42.35;100262.66;5056405;28;20029;-86
2022/05/24 04:37:55;;;;;;;5.75;1.52;;;;;;;20.16;42.75;100253.50;5055265;28;20025;-94
2022/05/24 04:42:18;;;;;;;4.47;1.58;;;;;;;20.11;42.86;100267.78;5055262;28;20029;-93
2022/05/24 04:43:06;;;;;;;4.55;1.42;;;;;;;20.23;42.35;100268.22;5056305;28;20475;-84
2022/05/24 04:45:32;;;;;;;1.60;1.33;;;;;;;20.24;42.50;100267.03;5055127;28;20093;-89
2022/05/24 04:47:57;;;;;;;5.85;1.80;;;;;;;20.31;42.42;100271.00;5054796;28;20116;-84
2022/05/24 04:50:23;;;;;;;5.40;1.58;;;;;;;20.29;42.61;100285.28;5054772;28;20404;-83
2022/05/24 04:52:49;;;;;;;6.13;1.67;;;;;;;20.35;42.45;100278.19;5055170;28;20029;-86
2022/05/24 04:55:15;;;;;;;4.45;1.33;;;;;;;20.40;42.37;100283.34;5055425;28;20101;-94
2022/05/24 04:57:41;;;;;;;3.13;1.55;;;;;;;20.35;42.51;100283.72;5055019;28;20025;-84
2022/05/24 05:00:13;;;;;;;3.38;1.60;;;;;;;20.42;42.39;100289.31;5054413;28;20044;-86
2022/05/24 05:02:40;;;;;;;7.05;1.70;;;;;;;20.30;42.66;100299.94;5054886;28;20123;-93
2022/05/24 05:05:06;;;;;;;4.53;1.60;;;;;;;20.34;42.74;100289.69;5054796;28;20404;-87
2022/05/24 05:07:33;;;;;;;3.20;1.70;;;;;;;20.43;42.28;100274.25;5054876;28;20500;-83
2022/05/24 05:09:58;;;;;;;2.67;1.40;;;;;;;20.52;42.19;100289.75;5054468;28;20052;-88
2022/05/24 05:12:26;;;;;;;8.38;2.67;;;;;;;20.53;42.23;100292.13;5063997;28;20467;-86
2022/05/24 05:14:52;;;;;;;3.22;1.58;;;;;;;20.33;42.92;100302.75;5074152;28;20114;-94
2022/05/24 05:17:19;;;;;;;4.60;1.50;;;;;;;20.31;43.00;100301.53;5075435;28;20029;-88
2022/05/24 05:19:45;;;;;;;5.30;1.63;;;;;;;20.35;42.84;100307.91;5074534;28;20478;-84
2022/05/24 05:22:12;;;;;;;4.72;1.70;;;;;;;20.39;43.02;100312.25;5074577;28;20445;-85
2022/05/24 05:24:38;;;;;;;8.00;2.05;;;;;;;20.25;43.45;100309.44;5074991;28;20040;-91
2022/05/24 05:27:05;;;;;;;8.27;2.33;;;;;;;20.32;42.86;100311.44;5073529;28;20029;-86
2022/05/24 05:32:26;;;;;;;3.85;1.52;;;;;;;20.24;43.33;100313.38;5074812;28;20525;-86
2022/05/24 05:34:52;;;;;;;3.33;1.52;;;;;;;20.42;42.85;100325.38;5075483;28;20074;-83
2022/05/24 05:37:19;;;;;;;5.07;1.58;;;;;;;20.63;42.56;100323.88;5073613;28;20025;-85
2022/05/24 05:39:45;;;;;;;3.75;2.13;;;;;;;20.57;42.67;100328.25;5074811;28;20021;-84
2022/05/24 05:42:11;;;;;;;9.45;2.08;;;;;;;20.47;42.84;100322.25;5074530;28;20037;-82
2022/05/24 05:44:37;;;;;;;8.13;1.70;;;;;;;20.57;42.71;100334.59;5072272;28;20020;-90
2022/05/24 05:47:04;;;;;;;3.15;1.38;;;;;;;20.62;42.59;100325.06;5073921;28;20028;-86
2022/05/24 05:49:29;;;;;;;5.78;1.63;;;;;;;20.68;42.48;100331.84;5078797;28;20028;-86
2022/05/24 05:51:55;;;;;;;5.88;1.40;;;;;;;20.66;42.76;100339.78;5094436;28;20473;-87
2022/05/24 05:54:21;;;;;;;4.97;1.88;;;;;;;20.67;42.72;100336.59;5095380;28;20039;-83
2022/05/24 05:56:47;;;;;;;2.80;1.40;;;;;;;20.74;42.56;100347.75;5076980;28;20032;-92
2022/05/24 05:59:13;;;;;;;6.20;1.60;;;;;;;20.67;42.76;100349.69;5076614;28;20152;-86
2022/05/24 06:01:38;;;;;;;5.78;1.58;;;;;;;20.62;42.89;100350.84;5076802;28;20115;-87
2022/05/24 06:04:04;;;;;;;2.95;1.30;;;;;;;20.88;42.50;100346.19;5098927;28;20108;-88
2022/05/24 06:06:35;;;;;;;7.55;1.65;;;;;;;20.95;42.40;100349.78;5097187;28;20031;-86
2022/05/24 06:09:01;;;;;;;5.35;1.52;;;;;;;20.92;42.32;100344.22;5096602;28;20489;-87
2022/05/24 06:11:26;;;;;;;4.07;1.50;;;;;;;20.96;42.47;100347.81;5096380;28;20027;-87
2022/05/24 06:13:52;;;;;;;7.80;2.60;;;;;;;20.97;42.42;100347.41;5115020;28;20470;-87
2022/05/24 06:16:18;;;;;;;4.45;1.90;;;;;;;21.10;42.69;100347.84;5097247;28;20108;-86
2022/05/24 06:18:43;;;;;;;5.25;1.65;;;;;;;21.16;42.13;100351.81;5096861;28;20411;-90
2022/05/24 06:21:09;;;;;;;7.15;2.40;;;;;;;21.37;41.95;100351.06;5096619;28;20034;-86
2022/05/24 06:23:35;;;;;;;5.47;2.03;;;;;;;21.55;41.71;100349.13;5083362;28;20085;-87
2022/05/24 06:26:00;;;;;;;5.85;2.20;;;;;;;21.56;42.01;100359.03;5076610;28;20027;-93
2022/05/24 06:28:26;;;;;;;5.75;1.98;;;;;;;21.77;41.52;100363.00;5076698;28;20471;-88
2022/05/24 06:30:52;;;;;;;5.80;1.50;;;;;;;21.83;41.35;100364.97;5076600;28;20048;-83
2022/05/24 06:33:18;;;;;;;4.00;1.40;;;;;;;21.59;41.65;100368.56;5077105;28;20039;-87
2022/05/24 06:35:44;;;;;;;6.38;1.70;;;;;;;21.80;41.16;100356.66;5076527;28;20055;-86
2022/05/24 06:38:09;;;;;;;4.47;1.77;;;;;;;21.85;41.17;100370.16;5076659;28;20051;-92
2022/05/24 06:40:35;;;;;;;18.15;2.80;;;;;;;21.80;40.93;100370.56;5094559;28;20028;-88
2022/05/24 06:43:01;;;;;;;7.07;2.08;;;;;;;21.95;40.77;100379.69;5094221;28;20043;-88
2022/05/24 06:45:26;;;;;;;10.32;2.65;;;;;;;21.81;41.09;100381.28;5093948;28;20431;-87
2022/05/24 06:47:52;;;;;;;9.77;3.15;;;;;;;21.81;40.90;100392.41;5096551;28;20386;-91
2022/05/24 06:50:18;;;;;;;5.93;1.98;;;;;;;21.89;40.65;100387.63;5114759;28;20044;-88
2022/05/24 06:52:44;;;;;;;11.75;3.88;;;;;;;21.90;40.56;100389.22;5094866;28;20038;-89
2022/05/24 06:55:11;;;;;;;4.88;2.35;;;;;;;21.52;40.92;100401.91;5097948;28;20023;-82
2022/05/24 06:57:37;;;;;;;8.80;2.20;;;;;;;21.67;40.69;100403.50;5093681;28;20049;-84
2022/05/24 07:02:49;;;;;;;5.95;1.95;;;;;;;21.62;41.20;100406.72;5111888;28;20057;-81
2022/05/24 07:05:20;;;;;;;6.30;2.30;;;;;;;21.71;41.27;100403.53;5095209;28;20115;-86
2022/05/24 07:07:46;;;;;;;6.00;1.75;;;;;;;21.90;40.52;100397.56;5095388;28;20057;-87
2022/05/24 07:10:17;;;;;;;11.98;2.35;;;;;;;21.75;41.26;100395.97;5095212;28;20028;-83
2022/05/24 07:12:45;;;;;;;4.80;1.40;;;;;;;21.96;40.85;100406.28;5078978;28;20035;-89
2022/05/24 07:15:11;;;;;;;4.13;1.38;;;;;;;21.86;41.29;100405.13;5078805;28;20034;-85
2022/05/24 07:17:37;;;;;;;8.63;1.85;;;;;;;22.18;40.39;100410.69;5083790;28;20082;-85
2022/05/24 07:20:03;;;;;;;6.50;2.10;;;;;;;22.25;40.56;100405.09;5089346;28;20591;-84
2022/05/24 07:22:29;;;;;;;10.10;2.00;;;;;;;22.43;40.51;100419.75;5094382;28;20036;-87
2022/05/24 07:24:54;;;;;;;14.52;2.95;;;;;;;22.77;40.07;100412.91;5121283;28;20028;-84
2022/05/24 07:27:21;;;;;;;11.85;2.53;;;;;;;22.92;40.06;100411.69;5127360;28;20039;-82
2022/05/24 07:29:48;;;;;;;10.05;1.98;;;;;;;22.81;40.23;100416.47;5094583;28;20184;-83
2022/05/24 07:32:13;;;;;;;4.72;1.10;;;;;;;23.03;40.04;100404.06;5094184;28;20035;-80
2022/05/24 07:34:39;;;;;;;7.05;1.17;;;;;;;23.20;39.45;100424.66;5093781;28;20028;-83
2022/05/24 07:37:07;;;;;;;5.22;1.73;;;;;;;23.37;39.31;100426.56;5111890;28;20024;-79
2022/05/24 07:39:33;;;;;;;6.18;1.80;;;;;;;23.29;39.20;100404.72;5092821;28;20393;-85
2022/05/24 07:47:49;;;;;;;17.02;3.42;;;;;;;23.78;37.88;100415.53;5046156;28;20104;-86
2022/05/24 07:50:15;;;;;;;6.80;1.88;;;;;;;23.78;37.55;100414.75;5057873;28;20044;-89
2022/05/24 07:52:40;;;;;;;12.20;2.10;;;;;;;23.74;37.88;100425.97;5074935;28;20024;-85
2022/05/24 07:55:06;;;;;;;9.63;2.08;;;;;;;23.80;37.86;100417.91;5089129;28;20112;-85
2022/05/24 07:57:32;;;;;;;5.78;1.50;;;;;;;23.97;37.31;100413.41;5093453;28;20481;-85
2022/05/24 07:59:58;;;;;;;3.83;1.00;;;;;;;23.64;37.40;100420.44;5093250;28;20059;-85
2022/05/24 08:02:24;;;;;;;10.00;2.17;;;;;;;23.65;36.97;100419.22;5094778;28;20050;-84
2022/05/24 08:04:53;;;;;;;11.20;2.42;;;;;;;23.73;36.60;100426.38;5094360;28;20486;-83
2022/05/24 08:07:19;;;;;;;4.75;1.58;;;;;;;23.76;36.67;100422.75;5095347;28;20112;-85
2022/05/24 08:09:44;;;;;;;7.15;1.25;;;;;;;23.84;36.46;100424.28;5098482;28;20078;-85
2022/05/24 08:12:10;;;;;;;8.45;1.85;;;;;;;23.83;36.53;100421.91;5115357;28;20027;-84
2022/05/24 08:14:35;;;;;;;8.52;1.83;;;;;;;24.23;36.04;100425.91;5094337;28;20016;-85
2022/05/24 08:17:01;;;;;;;12.82;1.63;;;;;;;24.29;35.64;100430.66;5098971;28;20016;-89
2022/05/24 08:19:27;;;;;;;9.18;1.63;;;;;;;24.23;35.55;100425.91;5097847;27;20634;-90
2022/05/24 08:21:52;;;;;;;1.83;0.88;;;;;;;24.18;35.05;100421.59;5103229;27;20406;-85
2022/05/24 08:24:18;;;;;;;4.57;1.15;;;;;;;23.85;35.43;100428.66;5111565;28;20069;-86
2022/05/24 08:26:43;;;;;;;5.72;1.58;;;;;;;24.16;34.39;100429.56;5097979;28;20065;-85
2022/05/24 08:29:09;;;;;;;8.10;1.48;;;;;;;24.09;34.86;100433.22;5097914;28;20054;-86
2022/05/24 08:31:35;;;;;;;1.73;0.70;;;;;;;24.01;34.68;100439.28;5095762;28;20114;-85
2022/05/24 08:34:00;;;;;;;3.03;1.25;;;;;;;24.25;34.46;100431.88;5091651;28;20011;-88
2022/05/24 08:36:26;;;;;;;3.22;1.25;;;;;;;24.37;33.88;100441.78;5098200;28;20460;-85
2022/05/24 08:38:52;;;;;;;6.90;1.45;;;;;;;24.45;33.92;100441.28;5098368;28;20077;-86
2022/05/24 08:41:51;;;;;;;3.08;1.25;;;;;;;24.58;33.82;100435.97;5097998;28;20027;-86
2022/05/24 08:50:05;;;;;;;3.13;1.00;;;;;;;24.81;33.70;100441.69;5102809;28;19938;-84
2022/05/24 08:52:38;;;;;;;8.20;1.92;;;;;;;24.80;33.56;100444.91;5097983;28;20466;-86
2022/05/24 08:55:06;;;;;;;7.93;1.25;;;;;;;24.82;33.51;100445.28;5108191;27;20393;-87
2022/05/24 08:57:52;;;;;;;15.82;2.42;;;;;;;24.44;33.46;100444.50;5118573;27;20031;-86
2022/05/24 09:00:39;;;;;;;3.28;1.08;;;;;;;24.81;33.16;100447.28;5115731;27;20034;-85
2022/05/24 09:03:07;;;;;;;5.13;1.30;;;;;;;24.84;33.31;100440.03;5077356;28;20042;-85
2022/05/24 09:05:39;;;;;;;2.30;0.68;;;;;;;25.12;32.78;100441.72;5077239;28;20441;-85
2022/05/24 09:08:22;;;;;;;4.40;0.85;;;;;;;24.99;32.93;100435.88;5077707;28;20024;-87
2022/05/24 09:11:09;;;;;;;6.00;1.00;;;;;;;25.07;32.85;100425.41;5082429;28;20031;-85
2022/05/24 09:14:10;;;;;;;4.68;1.30;;;;;;;25.13;32.53;100438.50;5096743;28;20046;-86
2022/05/24 09:17:25;;;;;;;3.47;1.20;;;;;;;25.65;31.78;100432.56;5096865;28;20027;-86
2022/05/24 09:19:50;;;;;;;5.95;1.20;;;;;;;25.57;32.22;100435.91;5065804;28;20081;-85
2022/05/24 09:22:21;;;;;;;4.43;1.85;;;;;;;25.58;31.81;100440.28;5079755;28;20020;-87
2022/05/24 09:24:56;;;;;;;4.55;1.17;;;;;;;25.36;31.87;100439.81;5099807;27;20038;-86
2022/05/24 09:27:30;;;;;;;4.50;1.20;;;;;;;25.23;31.51;100447.97;5116844;27;20023;-85
2022/05/24 09:29:59;;;;;;;4.53;1.08;;;;;;;25.28;31.43;100441.13;5116722;27;20126;-85
2022/05/24 09:32:29;;;;;;;5.32;1.30;;;;;;;25.18;31.20;100434.47;5097705;27;20032;-85
2022/05/24 09:35:16;;;;;;;14.60;2.53;;;;;;;25.21;31.02;100442.00;5075878;28;20031;-85
2022/05/24 09:37:45;;;;;;;2.47;0.85;;;;;;;25.56;31.05;100443.50;5075825;28;20036;-85
2022/05/24 09:40:21;;;;;;;7.95;1.67;;;;;;;25.61;31.27;100440.22;5076377;28;20509;-85
2022/05/24 09:42:47;;;;;;;2.80;0.77;;;;;;;25.66;31.08;100442.53;5076344;28;20093;-87
2022/05/24 09:45:17;;;;;;;8.55;1.65;;;;;;;25.67;30.62;100446.13;5076070;28;20027;-84
2022/05/24 09:47:43;;;;;;;3.38;0.63;;;;;;;25.77;30.50;100444.41;5076657;28;20448;-84
2022/05/24 09:50:14;;;;;;;8.98;1.38;;;;;;;25.69;30.64;100452.91;5094460;28;20040;-84
2022/05/24 09:52:41;;;;;;;9.00;1.58;;;;;;;25.70;30.82;100448.09;5096251;28;20445;-86
2022/05/24 09:55:07;;;;;;;2.63;1.02;;;;;;;25.56;30.95;100448.31;5111656;27;20028;-86
2022/05/24 09:57:33;;;;;;;6.88;0.98;;;;;;;25.60;30.92;100454.63;5075948;28;20382;-84
2022/05/24 10:00:09;;;;;;;10.50;2.40;;;;;;;25.49;31.36;100465.19;5093875;28;20028;-85
2022/05/24 10:02:39;;;;;;;2.25;1.00;;;;;;;25.44;31.38;100460.84;5094582;28;20038;-83
2022/05/24 10:05:17;;;;;;;10.27;2.35;;;;;;;25.29;30.66;100465.84;5114709;28;20133;-84
2022/05/24 10:08:04;;;;;;;2.40;1.05;;;;;;;25.09;30.56;100467.72;5096555;28;20023;-86
2022/05/24 10:10:36;;;;;;;6.55;2.08;;;;;;;24.97;30.26;100468.25;5096086;28;20053;-84
2022/05/24 10:13:19;;;;;;;6.03;1.17;;;;;;;24.71;30.56;100476.13;5088793;28;20470;-85
2022/05/24 10:15:59;;;;;;;4.53;0.98;;;;;;;24.93;30.97;100468.28;5114147;28;20057;-85
2022/05/24 10:18:35;;;;;;;8.98;1.65;;;;;;;24.90;31.37;100478.28;5096353;28;20119;-83
2022/05/24 10:21:29;;;;;;;5.85;1.25;;;;;;;24.66;31.80;100471.00;5106185;28;20049;-85
2022/05/24 10:24:23;;;;;;;6.30;1.35;;;;;;;24.66;31.59;100478.59;5079542;27;20035;-84
2022/05/24 10:27:01;;;;;;;4.70;1.05;;;;;;;24.31;32.62;100483.28;5096131;28;20581;-85
2022/05/24 10:29:47;;;;;;;5.25;0.93;;;;;;;24.51;31.75;100483.53;5113983;28;20520;-84
2022/05/24 10:38:48;;;;;;;6.47;2.47;;;;;;;24.52;32.54;100490.69;5093571;28;20047;-84
2022/05/24 10:41:23;;;;;;;4.38;1.10;;;;;;;24.59;32.45;100488.63;5093472;28;20035;-84
2022/05/24 10:43:55;;;;;;;11.32;1.33;;;;;;;24.78;32.35;100489.22;5093365;28;20032;-85
2022/05/24 10:46:28;;;;;;;6.13;1.30;;;;;;;25.03;32.28;100495.34;5075455;28;20474;-85
2022/05/24 10:49:25;;;;;;;5.63;0.75;;;;;;;25.24;32.05;100485.91;5093782;28;20050;-86
2022/05/24 10:52:10;;;;;;;5.40;1.10;;;;;;;25.37;31.87;100495.31;5107641;28;20066;-87
2022/05/24 10:54:56;;;;;;;2.00;1.30;;;;;;;25.46;31.43;100503.19;5104575;27;20055;-85
2022/05/24 10:57:28;;;;;;;2.15;0.90;;;;;;;24.62;32.59;100500.94;5116413;27;20130;-86
2022/05/24 11:00:12;;;;;;;4.63;0.63;;;;;;;24.16;32.24;100506.94;5116046;27;20122;-86
2022/05/24 11:02:59;;;;;;;5.40;1.10;;;;;;;24.28;32.26;100493.28;5095391;28;20038;-85
2022/05/24 11:05:37;;;;;;;4.63;1.30;;;;;;;24.57;32.15;100493.84;5095333;28;20100;-84
2022/05/24 11:08:25;;;;;;;4.75;1.25;;;;;;;24.97;32.94;100497.00;5095742;28;20047;-86
2022/05/24 11:10:51;;;;;;;5.07;1.02;;;;;;;25.15;31.96;100491.19;5041104;28;20538;-87
2022/05/24 11:13:42;;;;;;;7.60;1.00;;;;;;;25.33;32.02;100491.78;5093286;28;20285;-85
2022/05/24 11:16:14;;;;;;;6.70;2.10;;;;;;;25.43;31.84;100499.22;5074727;28;20040;-85
2022/05/24 11:18:41;;;;;;;2.42;0.93;;;;;;;25.36;31.40;100490.94;5074668;28;20475;-84
2022/05/24 11:21:12;;;;;;;5.00;0.82;;;;;;;25.39;31.25;100492.91;5092719;28;20042;-85
2022/05/24 11:24:06;;;;;;;9.35;1.67;;;;;;;25.21;32.04;100502.72;5079867;28;20045;-85
2022/05/24 11:26:38;;;;;;;4.40;1.00;;;;;;;24.80;32.78;100507.16;5075258;28;20020;-83
2022/05/24 11:29:20;;;;;;;1.77;0.70;;;;;;;24.94;33.33;100510.97;5084070;28;20050;-87
2022/05/24 11:31:51;;;;;;;1.17;0.50;;;;;;;24.87;33.80;100512.69;5098115;28;20024;-87
2022/05/24 11:34:18;;;;;;;9.75;2.00;;;;;;;24.54;33.29;100507.81;5095130;28;20027;-85
2022/05/24 11:36:49;;;;;;;3.67;0.70;;;;;;;24.75;32.69;100518.78;5088515;28;20462;-89
2022/05/24 11:39:26;;;;;;;4.40;1.10;;;;;;;24.56;33.00;100513.78;5094294;28;20035;-84
2022/05/24 11:42:29;;;;;;;2.00;0.75;;;;;;;24.58;33.54;100512.19;5094740;28;20020;-87
2022/05/24 11:44:57;;;;;;;4.00;1.00;;;;;;;24.69;33.15;100511.25;5095433;27;20386;-87
2022/05/24 11:47:35;;;;;;;4.78;1.23;;;;;;;24.64;33.81;100509.72;5116554;28;20414;-85
2022/05/24 11:50:22;;;;;;;2.22;0.70;;;;;;;25.00;32.45;100509.31;5117684;28;20043;-89
2022/05/24 11:53:15;;;;;;;2.70;0.80;;;;;;;24.87;33.51;100512.69;5115721;28;20047;-85
2022/05/24 11:56:09;;;;;;;7.95;1.20;;;;;;;25.59;32.36;100518.19;5129114;27;20031;-87
2022/05/24 11:58:34;;;;;;;3.03;0.50;;;;;;;25.59;32.93;100504.19;5119546;27;20069;-83
2022/05/24 12:01:15;;;;;;;2.72;0.82;;;;;;;25.82;32.62;100499.91;5127626;27;20024;-86
2022/05/24 12:09:59;;;;;;;1.98;0.60;;;;;;;26.42;31.09;100512.94;5111773;28;20397;-86
2022/05/24 12:12:31;;;;;;;9.80;1.60;;;;;;;26.31;30.02;100534.72;5097620;27;20122;-84
2022/05/24 12:15:09;;;;;;;15.32;2.92;;;;;;;26.24;31.32;100537.63;5083117;28;20093;-85
2022/05/24 12:17:35;;;;;;;2.72;0.43;;;;;;;25.71;30.96;100542.84;5115415;28;20035;-85
2022/05/24 12:20:01;;;;;;;7.60;1.42;;;;;;;25.42;31.14;100542.41;5094426;28;20035;-85
2022/05/24 12:22:30;;;;;;;4.18;0.90;;;;;;;25.32;31.10;100539.75;5092010;27;20019;-84